Time;durP1;ratioP1;P1;durP2;ratioP2;P2;SDS_P1;SDS_P2;PMS_P1;PMS_P2;Temp;Humidity;BMP_temperature;BMP_pressure;BME280_temperature;BME280_humidity;BME280_pressure;Samples;Min_cycle;Max_cycle;Signal;HPM_P1;HPM_P2
2022/11/02 00:01:07;;;;;;;54.65;31.52;;;;;;;12.38;100.00;100941.22;6179441;23;20028;-76
2022/11/02 00:03:32;;;;;;;59.40;34.83;;;;;;;12.35;100.00;100948.72;6179065;23;20005;-75
2022/11/02 00:05:58;;;;;;;58.70;32.75;;;;;;;12.28;100.00;100932.22;6179155;23;20463;-75
2022/11/02 00:08:23;;;;;;;57.35;32.63;;;;;;;12.34;100.00;100949.69;6153005;23;20130;-75
2022/11/02 00:10:48;;;;;;;59.72;33.47;;;;;;;12.36;100.00;100955.78;6152654;23;20422;-74
2022/11/02 00:13:14;;;;;;;60.60;34.08;;;;;;;12.34;100.00;100953.22;6179211;23;20064;-75
2022/11/02 00:15:39;;;;;;;55.92;32.33;;;;;;;12.14;100.00;100919.13;6152987;23;20009;-76
2022/11/02 00:18:09;;;;;;;52.53;32.63;;;;;;;12.35;100.00;100948.72;6178561;23;20012;-76
2022/11/02 00:20:38;;;;;;;60.10;33.33;;;;;;;12.36;100.00;100953.09;6151907;22;20048;-76
2022/11/02 00:23:06;;;;;;;57.60;33.28;;;;;;;12.35;100.00;100959.47;6178696;23;20083;-75
2022/11/02 00:25:32;;;;;;;59.60;32.67;;;;;;;12.36;100.00;100963.88;6178328;23;20559;-75
2022/11/02 00:27:58;;;;;;;62.60;34.58;;;;;;;12.29;100.00;100951.94;6178874;22;20074;-75
2022/11/02 00:30:23;;;;;;;61.88;33.83;;;;;;;12.15;100.00;100931.56;6178595;23;20001;-75
2022/11/02 00:32:49;;;;;;;51.90;31.20;;;;;;;12.36;100.00;100966.56;6178652;23;20635;-76
2022/11/02 00:35:15;;;;;;;56.25;32.28;;;;;;;12.34;100.00;100964.00;6179012;23;20357;-75
2022/11/02 00:37:40;;;;;;;57.10;31.95;;;;;;;12.36;100.00;100959.34;6178865;23;20001;-75
2022/11/02 00:40:06;;;;;;;54.35;31.02;;;;;;;12.55;100.00;100966.69;6178776;23;20015;-75
2022/11/02 00:42:31;;;;;;;55.50;32.55;;;;;;;12.60;100.00;100959.06;6178776;23;20033;-75
2022/11/02 00:44:57;;;;;;;54.20;30.05;;;;;;;12.52;100.00;100950.81;6178577;23;20080;-75
2022/11/02 00:47:22;;;;;;;53.53;30.70;;;;;;;12.52;100.00;100961.56;6178606;23;20009;-75
2022/11/02 00:49:48;;;;;;;54.45;30.52;;;;;;;12.46;100.00;100957.56;6179100;23;20084;-75
2022/11/02 00:52:13;;;;;;;57.38;30.55;;;;;;;12.38;100.00;100957.34;6178374;23;20009;-75
2022/11/02 00:54:39;;;;;;;54.22;30.85;;;;;;;12.39;100.00;100966.28;6178393;23;19997;-75
2022/11/02 00:57:04;;;;;;;50.80;30.38;;;;;;;12.40;100.00;100965.31;6178274;23;20043;-75
2022/11/02 00:59:30;;;;;;;52.47;28.85;;;;;;;12.47;100.00;100958.41;6178049;23;20058;-75
2022/11/02 01:01:55;;;;;;;49.35;29.30;;;;;;;12.60;100.00;100965.31;6178386;23;20005;-75
2022/11/02 01:04:20;;;;;;;49.45;28.25;;;;;;;12.58;100.00;100953.81;6151848;23;20012;-75
2022/11/02 01:06:46;;;;;;;49.05;28.13;;;;;;;12.57;100.00;100956.63;6178459;23;20009;-76
2022/11/02 01:09:13;;;;;;;56.70;29.85;;;;;;;12.53;100.00;100964.13;6177884;22;20009;-75
2022/11/02 01:11:39;;;;;;;45.78;25.92;;;;;;;12.43;100.00;100957.84;6177956;22;20534;-75
2022/11/02 01:14:05;;;;;;;48.47;26.70;;;;;;;12.45;100.00;100965.78;6178034;23;20076;-75
2022/11/02 01:16:31;;;;;;;43.20;26.60;;;;;;;12.25;100.00;100931.66;6178144;23;20079;-75
2022/11/02 01:18:56;;;;;;;49.95;28.08;;;;;;;12.48;100.00;100957.44;6177530;23;20012;-75
2022/11/02 01:21:22;;;;;;;46.33;26.65;;;;;;;12.25;100.00;100926.28;6178237;23;20009;-75
2022/11/02 01:23:48;;;;;;;48.67;26.98;;;;;;;12.35;100.00;100951.41;6178761;23;20483;-75
2022/11/02 01:26:13;;;;;;;46.03;25.85;;;;;;;12.33;100.00;100956.06;6178189;23;20050;-75
2022/11/02 01:28:40;;;;;;;41.78;23.75;;;;;;;12.37;100.00;100955.66;6178464;23;20016;-75
2022/11/02 01:31:06;;;;;;;38.60;23.23;;;;;;;12.37;100.00;100957.50;6178354;23;20099;-75
2022/11/02 01:33:32;;;;;;;44.67;25.20;;;;;;;12.31;100.00;100945.41;6178475;22;20028;-75
2022/11/02 01:35:58;;;;;;;39.90;22.70;;;;;;;12.27;100.00;100940.44;6178523;22;20075;-75
2022/11/02 01:38:24;;;;;;;46.63;24.35;;;;;;;12.25;100.00;100934.34;6177964;23;20004;-68
2022/11/02 01:40:50;;;;;;;40.95;24.33;;;;;;;12.33;100.00;100951.53;6176121;22;20334;-67
2022/11/02 01:43:21;;;;;;;43.08;23.27;;;;;;;12.36;100.00;100956.66;6176140;23;20012;-67
2022/11/02 01:45:48;;;;;;;41.70;23.67;;;;;;;12.31;100.00;100953.50;6176017;23;20008;-66
2022/11/02 01:48:14;;;;;;;42.55;23.60;;;;;;;12.27;100.00;100946.66;6176234;23;20498;-67
2022/11/02 01:50:40;;;;;;;43.63;24.42;;;;;;;12.31;100.00;100952.63;6175651;23;20012;-66
2022/11/02 01:53:06;;;;;;;43.03;24.45;;;;;;;12.33;100.00;100953.38;6175834;23;20028;-67
2022/11/02 01:55:33;;;;;;;38.58;22.50;;;;;;;12.31;100.00;100948.09;6149729;23;20012;-67
2022/11/02 01:58:05;;;;;;;41.95;23.70;;;;;;;12.35;100.00;100951.41;6177894;23;20058;-74
2022/11/02 02:00:30;;;;;;;39.90;23.65;;;;;;;12.31;100.00;100941.88;6178008;23;20473;-75
2022/11/02 02:03:03;;;;;;;39.85;23.73;;;;;;;12.32;100.00;100944.44;6178379;23;20001;-75
2022/11/02 02:05:32;;;;;;;41.05;23.67;;;;;;;12.33;100.00;100943.47;6177818;23;20076;-75
2022/11/02 02:07:59;;;;;;;46.03;25.58;;;;;;;12.30;100.00;100938.34;6177826;23;20444;-75
2022/11/02 02:10:25;;;;;;;42.03;25.63;;;;;;;12.40;100.00;100936.56;6178234;23;20400;-75
2022/11/02 02:12:50;;;;;;;46.92;26.52;;;;;;;12.43;100.00;100933.63;6178631;23;20047;-75
2022/11/02 02:15:16;;;;;;;36.65;23.30;;;;;;;12.39;100.00;100932.19;6178235;23;20001;-76
2022/11/02 02:17:46;;;;;;;49.03;26.33;;;;;;;12.37;100.00;100933.28;6152098;22;20001;-75
2022/11/02 02:20:14;;;;;;;47.92;26.30;;;;;;;12.35;100.00;100935.25;6177561;23;20017;-75
2022/11/02 02:23:06;;;;;;;50.88;27.52;;;;;;;12.39;100.00;100937.56;6177805;23;20017;-76
2022/11/02 02:25:59;;;;;;;50.35;27.92;;;;;;;12.35;100.00;100929.88;6177306;23;20028;-76
2022/11/02 02:28:27;;;;;;;50.15;27.48;;;;;;;12.37;100.00;100939.53;6151238;23;20009;-75
2022/11/02 02:31:17;;;;;;;45.45;26.15;;;;;;;12.39;100.00;100942.09;6178847;23;20027;-75
2022/11/02 02:33:55;;;;;;;52.78;26.65;;;;;;;12.35;100.00;100941.47;6179326;23;20088;-75
2022/11/02 02:36:29;;;;;;;49.35;28.05;;;;;;;12.40;100.00;100946.47;6179454;22;20008;-74
2022/11/02 02:39:04;;;;;;;52.17;29.08;;;;;;;12.40;100.00;100947.34;6152632;22;20665;-75
2022/11/02 02:42:01;;;;;;;46.33;26.83;;;;;;;12.36;100.00;100959.34;6179074;22;20005;-76
2022/11/02 02:44:32;;;;;;;49.22;27.35;;;;;;;12.36;100.00;100955.78;6179385;23;20087;-75
2022/11/02 02:47:07;;;;;;;42.92;26.20;;;;;;;12.36;100.00;100955.78;6178853;23;20057;-75
2022/11/02 02:49:41;;;;;;;50.88;29.55;;;;;;;12.34;100.00;100955.91;6179365;22;20417;-75
2022/11/02 02:52:08;;;;;;;50.67;27.60;;;;;;;12.34;100.00;100952.38;6179392;23;20008;-75
2022/11/02 02:54:40;;;;;;;48.00;27.88;;;;;;;12.22;100.00;100935.44;6178980;23;20330;-75
2022/11/02 02:57:09;;;;;;;51.88;28.85;;;;;;;12.34;100.00;100958.63;6179255;22;20422;-75
2022/11/02 02:59:47;;;;;;;46.35;26.90;;;;;;;12.32;100.00;100955.19;6178773;23;20005;-76
2022/11/02 03:02:19;;;;;;;46.45;27.45;;;;;;;12.33;100.00;100964.13;6152477;23;20506;-75
2022/11/02 03:04:44;;;;;;;44.50;26.27;;;;;;;12.32;100.00;100960.56;6179085;22;20463;-75
2022/11/02 03:07:14;;;;;;;49.58;27.88;;;;;;;12.22;100.00;100946.19;6152814;23;20040;-75
2022/11/02 03:09:56;;;;;;;45.65;27.13;;;;;;;12.22;100.00;100942.66;6179270;23;20013;-75
2022/11/02 03:12:45;;;;;;;53.88;29.80;;;;;;;12.31;100.00;100958.88;6179173;22;20004;-74
2022/11/02 03:15:23;;;;;;;53.50;27.70;;;;;;;12.29;100.00;100965.38;6152622;22;20054;-75
2022/11/02 03:18:11;;;;;;;47.80;26.60;;;;;;;12.32;100.00;100968.63;6179342;23;20001;-75
2022/11/02 03:20:46;;;;;;;48.25;27.45;;;;;;;12.38;100.00;100972.66;6178920;23;20016;-75
2022/11/02 03:23:16;;;;;;;41.58;24.80;;;;;;;12.10;100.00;100939.19;6179048;23;20479;-75
2022/11/02 03:26:06;;;;;;;43.55;25.75;;;;;;;12.33;100.00;100970.38;6178463;23;20092;-75
2022/11/02 03:29:09;;;;;;;42.30;25.65;;;;;;;12.32;100.00;100967.81;6178737;23;20004;-76
2022/11/02 03:31:41;;;;;;;50.05;25.73;;;;;;;12.32;100.00;100979.41;6178695;22;20001;-75
2022/11/02 03:34:37;;;;;;;45.45;26.55;;;;;;;12.31;100.00;100977.69;6178768;23;20029;-75
2022/11/02 03:37:29;;;;;;;45.85;25.67;;;;;;;12.29;100.00;100984.19;6178691;23;20011;-75
2022/11/02 03:40:02;;;;;;;45.58;26.30;;;;;;;12.16;100.00;100954.78;6178784;23;20011;-76
2022/11/02 03:42:32;;;;;;;48.17;27.83;;;;;;;12.17;100.00;100961.03;6178657;22;20029;-76
2022/11/02 03:45:03;;;;;;;46.38;27.38;;;;;;;12.18;100.00;100968.09;6179110;22;20406;-75
2022/11/02 03:47:32;;;;;;;43.45;25.60;;;;;;;12.23;100.00;100976.66;6178699;23;20001;-75
2022/11/02 03:50:01;;;;;;;45.58;26.75;;;;;;;12.29;100.00;100985.03;6179253;23;20009;-75
2022/11/02 03:52:30;;;;;;;47.05;26.50;;;;;;;12.29;100.00;100986.88;6152900;23;20013;-75
2022/11/02 03:55:01;;;;;;;41.67;24.95;;;;;;;12.31;100.00;100992.97;6179643;22;20483;-75
2022/11/02 03:57:38;;;;;;;42.97;25.17;;;;;;;12.21;100.00;100982.16;6178944;23;20005;-75
2022/11/02 04:00:18;;;;;;;42.05;25.40;;;;;;;12.29;100.00;101001.16;6179749;23;20081;-75
2022/11/02 04:02:48;;;;;;;47.15;25.92;;;;;;;12.30;100.00;101004.72;6192146;23;20004;-76
2022/11/02 04:05:15;;;;;;;39.53;24.10;;;;;;;12.28;100.00;101002.16;6177200;22;20040;-74
2022/11/02 04:10:28;;;;;;;42.97;25.67;;;;;;;12.22;100.00;100977.63;6175871;23;20492;-76
2022/11/02 04:15:37;;;;;;;45.90;26.60;;;;;;;12.25;100.00;100974.69;6176292;23;20505;-76
2022/11/02 04:20:50;;;;;;;46.70;27.52;;;;;;;12.24;100.00;100983.72;6176940;23;20449;-76
2022/11/02 04:26:00;;;;;;;44.97;25.60;;;;;;;12.31;100.00;101003.72;6176542;23;20075;-76
2022/11/02 04:28:26;;;;;;;45.95;26.35;;;;;;;12.22;100.00;100991.09;6176037;23;20009;-75
2022/11/02 04:30:51;;;;;;;45.58;25.75;;;;;;;12.29;100.00;101001.16;6149901;23;20016;-75
2022/11/02 04:33:33;;;;;;;42.75;25.17;;;;;;;12.27;100.00;101004.97;6176139;23;20084;-75
2022/11/02 04:36:01;;;;;;;42.85;25.85;;;;;;;12.36;100.00;101004.22;6176546;23;19997;-74
2022/11/02 04:38:39;;;;;;;42.15;24.02;;;;;;;12.46;100.00;101003.31;6149874;23;20092;-75
2022/11/02 04:43:50;;;;;;;44.30;25.65;;;;;;;12.36;100.00;101006.91;6175887;23;20055;-74
2022/11/02 04:46:16;;;;;;;44.63;25.80;;;;;;;12.37;100.00;101013.97;6176188;23;20333;-76
2022/11/02 04:48:41;;;;;;;46.92;26.15;;;;;;;12.37;100.00;101006.78;6176388;23;20009;-75
2022/11/02 04:51:06;;;;;;;43.33;25.42;;;;;;;12.40;100.00;101021.78;6176216;23;20012;-76
2022/11/02 04:53:34;;;;;;;44.85;24.67;;;;;;;12.45;100.00;101024.97;6175563;23;20001;-75
2022/11/02 04:55:59;;;;;;;44.25;24.00;;;;;;;12.42;100.00;101003.69;6175622;23;20013;-67
2022/11/02 04:58:25;;;;;;;47.65;25.13;;;;;;;12.51;100.00;101021.75;6175404;23;20468;-67
2022/11/02 05:00:50;;;;;;;46.80;25.00;;;;;;;12.47;100.00;101012.22;6175698;23;20005;-66
2022/11/02 05:03:16;;;;;;;43.78;24.42;;;;;;;12.44;100.00;101031.31;6175945;23;20084;-66
2022/11/02 05:05:42;;;;;;;47.45;25.70;;;;;;;12.47;100.00;101022.97;6175872;22;20001;-67
2022/11/02 05:08:08;;;;;;;45.00;26.58;;;;;;;12.39;100.00;101037.09;6176059;23;20315;-67
2022/11/02 05:10:33;;;;;;;47.80;27.13;;;;;;;12.38;100.00;101039.91;6175902;23;20009;-67
2022/11/02 05:12:59;;;;;;;49.33;26.08;;;;;;;12.37;100.00;101039.06;6149334;23;20005;-67
2022/11/02 05:15:25;;;;;;;52.78;26.52;;;;;;;12.36;100.00;101039.19;6175660;22;20001;-68
2022/11/02 05:17:51;;;;;;;50.10;27.80;;;;;;;12.22;100.00;101026.03;6175229;23;20082;-68
2022/11/02 05:20:16;;;;;;;46.40;26.40;;;;;;;12.30;100.00;101037.88;6149762;23;20009;-68
2022/11/02 05:22:42;;;;;;;47.10;26.75;;;;;;;12.30;100.00;101048.63;6176115;23;20081;-67
2022/11/02 05:25:09;;;;;;;43.67;25.15;;;;;;;12.33;100.00;101045.69;6175898;23;20064;-67
2022/11/02 05:27:34;;;;;;;48.53;26.83;;;;;;;12.37;100.00;101051.63;6175053;22;20047;-67
2022/11/02 05:30:00;;;;;;;46.83;26.10;;;;;;;12.31;100.00;101052.16;6175529;23;20009;-66
2022/11/02 05:32:28;;;;;;;50.03;25.90;;;;;;;12.33;100.00;101052.88;6175966;23;20039;-66
2022/11/02 05:34:53;;;;;;;44.40;27.00;;;;;;;12.24;100.00;101054.50;6176143;23;20021;-67
2022/11/02 05:37:19;;;;;;;48.70;25.90;;;;;;;12.13;100.00;101051.00;6176349;23;19997;-66
2022/11/02 05:39:44;;;;;;;44.67;26.02;;;;;;;12.11;100.00;101048.44;6176292;23;20012;-66
2022/11/02 05:42:09;;;;;;;51.88;27.17;;;;;;;12.09;100.00;101038.81;6176069;23;20001;-67
2022/11/02 05:44:35;;;;;;;47.78;26.10;;;;;;;12.22;100.00;101058.31;6176028;23;20009;-67
2022/11/02 05:47:02;;;;;;;48.45;27.48;;;;;;;12.02;100.00;101033.06;6176250;23;20448;-66
2022/11/02 05:49:27;;;;;;;46.67;25.00;;;;;;;12.10;100.00;101045.88;6176035;23;20400;-66
2022/11/02 05:51:53;;;;;;;48.35;25.23;;;;;;;12.17;100.00;101071.28;6175940;23;20044;-67
2022/11/02 05:54:19;;;;;;;48.22;26.83;;;;;;;12.12;100.00;101065.44;6149714;23;20005;-67
2022/11/02 05:56:44;;;;;;;47.80;26.85;;;;;;;12.04;100.00;101049.06;6175865;23;20005;-67
2022/11/02 05:59:10;;;;;;;50.88;25.92;;;;;;;12.16;100.00;101062.34;6175658;23;20074;-67
2022/11/02 06:01:35;;;;;;;51.70;27.10;;;;;;;12.18;100.00;101081.03;6175693;23;20073;-67
2022/11/02 06:04:00;;;;;;;48.85;26.55;;;;;;;12.11;100.00;101067.25;6175814;23;20005;-67
2022/11/02 06:06:26;;;;;;;46.88;25.80;;;;;;;12.25;100.00;101093.03;6148880;23;20009;-67
2022/11/02 06:08:52;;;;;;;47.42;26.33;;;;;;;12.29;100.00;101098.00;6175777;23;20130;-67
2022/11/02 06:11:17;;;;;;;48.97;26.02;;;;;;;12.33;100.00;101106.69;6149355;23;20009;-67
2022/11/02 06:13:43;;;;;;;48.90;25.63;;;;;;;12.12;100.00;101092.34;6175756;23;20008;-67
2022/11/02 06:16:14;;;;;;;45.10;25.35;;;;;;;12.15;100.00;101108.22;6173327;23;20088;-66
2022/11/02 06:18:40;;;;;;;50.55;26.23;;;;;;;12.04;100.00;101100.16;6149226;23;20035;-67
2022/11/02 06:21:05;;;;;;;45.15;24.95;;;;;;;12.01;100.00;101100.41;6174022;23;20253;-73
2022/11/02 06:23:32;;;;;;;52.38;27.27;;;;;;;12.24;100.00;101126.25;6144585;23;20032;-66
2022/11/02 06:25:59;;;;;;;49.97;26.83;;;;;;;12.19;100.00;101115.88;6175009;22;20033;-67
2022/11/02 06:28:26;;;;;;;52.33;26.30;;;;;;;12.29;100.00;101110.63;6174473;23;20013;-68
2022/11/02 06:30:52;;;;;;;46.50;25.40;;;;;;;12.29;100.00;101124.06;6174558;23;20378;-67
2022/11/02 06:33:18;;;;;;;47.85;26.70;;;;;;;12.25;100.00;101120.75;6174917;23;20029;-68
2022/11/02 06:35:45;;;;;;;44.25;24.60;;;;;;;12.29;100.00;101116.00;6148267;23;20001;-68
2022/11/02 06:38:11;;;;;;;43.10;24.60;;;;;;;12.24;100.00;101107.44;6174242;22;20756;-68
2022/11/02 06:40:36;;;;;;;45.53;23.58;;;;;;;12.32;100.00;101119.28;6175101;23;20001;-68
2022/11/02 06:43:01;;;;;;;42.58;23.17;;;;;;;12.45;100.00;101128.03;6148302;23;20017;-68
2022/11/02 06:45:27;;;;;;;44.25;23.42;;;;;;;12.48;100.00;101122.41;6174831;23;20452;-68
2022/11/02 06:47:52;;;;;;;36.53;21.88;;;;;;;12.40;100.00;101110.56;6174583;23;20126;-68
2022/11/02 06:50:18;;;;;;;37.08;22.15;;;;;;;12.30;100.00;101097.03;6175378;23;20009;-66
2022/11/02 06:52:45;;;;;;;41.25;23.33;;;;;;;12.45;100.00;101111.06;6175013;23;20016;-67
2022/11/02 06:55:12;;;;;;;38.13;21.75;;;;;;;12.53;100.00;101108.56;6174659;23;19997;-67
2022/11/02 06:57:38;;;;;;;41.15;22.67;;;;;;;12.59;100.00;101108.06;6148608;23;20008;-67
2022/11/02 07:00:05;;;;;;;44.22;24.92;;;;;;;12.66;100.00;101103.88;6174724;23;20395;-66
2022/11/02 07:02:31;;;;;;;49.95;24.67;;;;;;;12.75;100.00;101103.09;6148153;23;20009;-67
2022/11/02 07:04:57;;;;;;;42.45;23.73;;;;;;;12.83;100.00;101111.41;6174865;23;20429;-67
2022/11/02 07:07:22;;;;;;;35.58;21.83;;;;;;;12.83;100.00;101093.41;6174562;23;20027;-67
2022/11/02 07:09:48;;;;;;;45.58;24.17;;;;;;;12.83;100.00;101092.56;6174233;23;20037;-67
2022/11/02 07:12:13;;;;;;;43.83;24.65;;;;;;;12.88;100.00;101093.00;6174321;23;20452;-67
2022/11/02 07:14:38;;;;;;;38.85;22.50;;;;;;;12.89;100.00;101097.41;6173324;23;20065;-67
2022/11/02 07:17:04;;;;;;;44.42;24.42;;;;;;;13.01;100.00;101099.94;6173779;23;20005;-67
2022/11/02 07:19:30;;;;;;;42.40;24.90;;;;;;;13.05;100.00;101090.63;6147975;23;20012;-67
2022/11/02 07:21:55;;;;;;;39.78;23.15;;;;;;;13.10;100.00;101082.16;6175254;23;20786;-67
2022/11/02 07:24:21;;;;;;;39.45;23.15;;;;;;;13.35;100.00;101097.91;6174418;23;20005;-67
2022/11/02 07:26:49;;;;;;;47.80;24.98;;;;;;;13.27;100.00;101084.22;6175751;23;20039;-66
2022/11/02 07:29:16;;;;;;;45.90;25.13;;;;;;;13.27;100.00;101085.09;6176008;22;20004;-67
2022/11/02 07:31:41;;;;;;;36.72;22.23;;;;;;;13.33;100.00;101100.72;6175872;23;20005;-66
2022/11/02 07:34:07;;;;;;;40.47;22.77;;;;;;;13.45;100.00;101096.13;6175822;23;20080;-67
2022/11/02 07:36:32;;;;;;;40.30;22.40;;;;;;;13.40;100.00;101079.47;6175876;23;20012;-67
2022/11/02 07:38:58;;;;;;;40.35;22.30;;;;;;;13.43;100.00;101085.47;6175854;23;20062;-66
2022/11/02 07:41:23;;;;;;;35.20;22.17;;;;;;;13.58;100.00;101096.75;6176038;23;20032;-66
2022/11/02 07:43:49;;;;;;;39.35;21.52;;;;;;;13.62;100.00;101103.56;6175600;23;20037;-68
2022/11/02 07:46:14;;;;;;;37.83;21.75;;;;;;;13.66;100.00;101095.06;6176066;23;20005;-66
2022/11/02 07:48:39;;;;;;;35.60;20.13;;;;;;;13.74;100.00;101091.72;6175747;23;20333;-67
2022/11/02 07:51:06;;;;;;;36.83;20.50;;;;;;;13.83;99.54;101088.16;6175983;23;20080;-68
2022/11/02 07:53:32;;;;;;;38.25;21.45;;;;;;;13.85;100.00;101080.81;6149140;23;20110;-67
2022/11/02 07:56:02;;;;;;;36.55;21.63;;;;;;;13.86;100.00;101082.50;6175837;22;20130;-67
2022/11/02 07:58:27;;;;;;;36.10;20.50;;;;;;;13.85;99.92;101078.13;6149210;23;20012;-67
2022/11/02 08:00:56;;;;;;;33.75;20.52;;;;;;;13.84;99.87;101079.09;6148165;23;20008;-67
2022/11/02 08:03:21;;;;;;;31.77;17.58;;;;;;;13.92;98.75;101086.50;6172397;23;20448;-67
2022/11/02 08:05:47;;;;;;;33.35;19.00;;;;;;;13.93;98.09;101097.13;6175016;23;20001;-67
2022/11/02 08:08:14;;;;;;;33.67;19.70;;;;;;;13.97;97.83;101100.44;6175329;23;20005;-67
2022/11/02 08:10:40;;;;;;;32.70;18.80;;;;;;;13.95;97.78;101092.47;6175657;23;20039;-67
2022/11/02 08:13:11;;;;;;;35.53;20.60;;;;;;;13.96;98.33;101096.88;6175351;22;20017;-67
2022/11/02 08:15:37;;;;;;;32.03;19.83;;;;;;;13.91;98.71;101092.88;6148820;23;20001;-68
2022/11/02 08:18:06;;;;;;;34.42;19.40;;;;;;;14.01;98.61;101100.03;6175072;23;20329;-68
2022/11/02 08:20:34;;;;;;;33.72;19.60;;;;;;;13.96;99.35;101086.09;6175235;23;20004;-68
2022/11/02 08:23:00;;;;;;;39.72;20.92;;;;;;;14.00;98.81;101078.56;6175421;23;20045;-68
2022/11/02 08:25:25;;;;;;;32.88;20.27;;;;;;;14.08;99.13;101095.78;6174935;23;20485;-67
2022/11/02 08:27:51;;;;;;;36.22;22.08;;;;;;;14.02;98.55;101085.53;6175314;23;20015;-67
2022/11/02 08:30:17;;;;;;;35.70;20.10;;;;;;;14.10;98.55;101101.03;6175397;23;20077;-67
2022/11/02 08:32:42;;;;;;;38.40;20.98;;;;;;;13.46;97.59;100987.31;6148897;23;20429;-67
2022/11/02 08:35:08;;;;;;;34.35;20.50;;;;;;;14.05;98.12;101077.16;6148658;23;20112;-68
2022/11/02 08:37:33;;;;;;;32.80;18.33;;;;;;;14.08;98.10;101079.59;6175224;23;20009;-67
2022/11/02 08:39:59;;;;;;;31.30;18.90;;;;;;;14.19;98.54;101095.66;6175531;23;20008;-67
2022/11/02 08:42:24;;;;;;;33.80;19.40;;;;;;;14.23;98.29;101096.28;6175408;23;20008;-67
2022/11/02 08:44:50;;;;;;;35.10;19.85;;;;;;;14.23;98.27;101091.75;6175121;23;20011;-67
2022/11/02 08:47:17;;;;;;;34.80;19.92;;;;;;;14.37;96.11;101104.81;6174256;23;20040;-67
2022/11/02 08:49:43;;;;;;;35.25;20.90;;;;;;;14.29;96.00;101087.63;6148538;23;20036;-67
2022/11/02 08:52:08;;;;;;;39.05;22.55;;;;;;;14.36;96.19;101102.25;6174460;23;20542;-67
2022/11/02 08:54:34;;;;;;;34.83;20.58;;;;;;;14.32;96.10;101087.34;6175480;23;20054;-67
2022/11/02 08:56:59;;;;;;;33.42;19.50;;;;;;;14.48;95.75;101107.38;6175424;23;20433;-67
2022/11/02 08:59:25;;;;;;;33.05;19.73;;;;;;;14.53;94.34;101115.06;6175164;23;20020;-68
2022/11/02 09:01:50;;;;;;;36.03;19.85;;;;;;;14.55;93.31;101091.50;6174510;23;20013;-68
2022/11/02 09:04:16;;;;;;;36.58;21.65;;;;;;;14.55;93.86;101099.59;6174117;23;20031;-67
2022/11/02 09:06:41;;;;;;;37.55;21.55;;;;;;;14.50;94.51;101100.00;6149402;23;20083;-67
2022/11/02 09:09:07;;;;;;;34.08;19.83;;;;;;;14.51;95.29;101101.69;6150445;23;20012;-67
2022/11/02 09:11:32;;;;;;;34.67;20.95;;;;;;;14.69;93.02;101097.31;6149685;23;20009;-67
2022/11/02 09:13:58;;;;;;;42.22;21.40;;;;;;;14.64;94.30;101098.75;6176144;23;20005;-67
2022/11/02 09:16:23;;;;;;;37.55;21.80;;;;;;;14.70;94.99;101107.13;6175641;23;20001;-67
2022/11/02 09:18:49;;;;;;;37.70;21.02;;;;;;;14.78;93.95;101112.69;6149964;23;20013;-67
2022/11/02 09:21:14;;;;;;;35.15;19.70;;;;;;;14.71;94.67;101100.75;6176737;23;20085;-67
2022/11/02 09:23:39;;;;;;;35.28;20.77;;;;;;;14.79;95.49;101102.72;6176471;23;20009;-67
2022/11/02 09:26:05;;;;;;;35.67;21.13;;;;;;;14.84;94.89;101109.41;6168407;23;20021;-67
2022/11/02 09:28:30;;;;;;;38.97;21.92;;;;;;;14.83;95.25;101085.25;6175120;23;20015;-67
2022/11/02 09:30:56;;;;;;;36.97;19.85;;;;;;;15.11;92.53;101098.72;6176607;23;20013;-68
2022/11/02 09:33:21;;;;;;;34.58;19.13;;;;;;;14.98;91.62;101051.38;6176378;23;20005;-67
2022/11/02 09:35:48;;;;;;;34.92;20.85;;;;;;;15.35;90.25;101079.31;6174947;23;20053;-67
2022/11/02 09:38:15;;;;;;;32.83;19.75;;;;;;;15.36;90.89;101083.72;6176525;23;20005;-67
2022/11/02 09:40:45;;;;;;;34.70;19.77;;;;;;;15.32;91.85;101083.16;6175950;23;20009;-68
2022/11/02 09:43:13;;;;;;;36.60;20.52;;;;;;;15.51;90.12;101095.81;6176181;23;20718;-68
2022/11/02 09:46:07;;;;;;;36.42;20.58;;;;;;;15.58;89.33;101072.59;6176281;23;20498;-68
2022/11/02 09:48:38;;;;;;;33.47;19.83;;;;;;;15.57;89.73;101068.16;6176417;23;20005;-68
2022/11/02 09:51:17;;;;;;;32.65;19.73;;;;;;;15.69;89.65;101081.38;6176307;23;20005;-68
2022/11/02 09:53:58;;;;;;;33.70;18.90;;;;;;;15.82;89.16;101076.47;6176139;23;20024;-68
2022/11/02 09:56:25;;;;;;;35.25;21.20;;;;;;;15.93;88.58;101071.84;6175787;23;20012;-67
2022/11/02 09:58:59;;;;;;;37.70;21.73;;;;;;;16.02;87.69;101073.66;6176372;23;20418;-67
2022/11/02 10:01:37;;;;;;;39.53;20.83;;;;;;;16.05;85.20;101059.81;6176316;23;20009;-67
2022/11/02 10:04:14;;;;;;;37.92;22.00;;;;;;;16.16;85.65;101071.28;6176107;23;20382;-68
2022/11/02 10:06:47;;;;;;;34.97;20.63;;;;;;;16.23;85.55;101075.09;6176038;23;20329;-67
2022/11/02 10:09:24;;;;;;;33.30;20.60;;;;;;;16.41;83.33;101075.13;6174737;23;20337;-68
2022/11/02 10:12:13;;;;;;;36.53;21.02;;;;;;;16.27;84.09;101073.78;6176312;23;20033;-68
2022/11/02 10:14:50;;;;;;;32.20;20.85;;;;;;;16.14;85.26;101073.28;6176218;23;20465;-67
2022/11/02 10:17:25;;;;;;;35.92;20.50;;;;;;;16.14;85.71;101085.97;6174301;23;20005;-68
2022/11/02 10:20:01;;;;;;;37.58;23.08;;;;;;;16.06;85.94;101094.00;6176313;23;20016;-68
2022/11/02 10:22:39;;;;;;;40.33;21.92;;;;;;;16.04;85.33;101079.75;6176131;23;20016;-68
2022/11/02 10:25:06;;;;;;;37.30;22.05;;;;;;;16.14;84.35;101089.53;6174231;23;20024;-67
2022/11/02 10:27:36;;;;;;;42.03;23.52;;;;;;;16.17;83.87;101089.22;6175748;23;20429;-68
2022/11/02 10:30:04;;;;;;;37.67;22.27;;;;;;;16.07;85.27;101087.56;6176142;23;20409;-67
2022/11/02 10:32:33;;;;;;;33.33;20.30;;;;;;;15.93;86.51;101089.78;6175817;22;20073;-67
2022/11/02 10:35:02;;;;;;;31.67;18.90;;;;;;;15.85;87.71;101087.00;6176084;23;20379;-67
2022/11/02 10:37:55;;;;;;;31.65;19.48;;;;;;;15.94;86.16;101086.06;6175965;23;20329;-67
2022/11/02 10:40:38;;;;;;;32.45;20.50;;;;;;;15.95;85.55;101086.94;6176198;23;20807;-67
2022/11/02 10:43:09;;;;;;;35.63;20.25;;;;;;;15.80;87.02;101083.00;6176000;23;20008;-67
2022/11/02 10:46:07;;;;;;;32.72;19.27;;;;;;;15.71;88.63;101082.03;6175700;23;20005;-74
2022/11/02 10:48:33;;;;;;;36.08;18.67;;;;;;;15.66;89.82;101075.38;6125969;23;20446;-74
2022/11/02 10:51:12;;;;;;;34.70;19.20;;;;;;;15.66;90.71;101070.84;6174880;23;20043;-74
2022/11/02 10:53:46;;;;;;;30.85;20.08;;;;;;;15.63;90.26;101054.03;6177326;23;20017;-74
2022/11/02 10:56:31;;;;;;;34.42;19.95;;;;;;;15.69;90.48;101065.13;6177208;23;20318;-74
2022/11/02 10:59:09;;;;;;;31.23;19.63;;;;;;;15.72;90.53;101062.13;6175526;23;20088;-74
2022/11/02 11:01:34;;;;;;;32.03;19.27;;;;;;;15.72;90.48;101059.44;6177626;23;20009;-75
2022/11/02 11:04:05;;;;;;;30.65;19.63;;;;;;;15.73;90.27;101058.41;6177267;23;20078;-75
2022/11/02 11:06:42;;;;;;;33.17;19.73;;;;;;;15.73;90.05;101050.31;6175561;23;20020;-74
2022/11/02 11:09:18;;;;;;;31.15;19.45;;;;;;;15.80;89.54;101051.41;6177185;23;20245;-74
2022/11/02 11:11:54;;;;;;;37.03;21.90;;;;;;;15.87;89.18;101065.19;6177178;23;20001;-74
2022/11/02 11:14:22;;;;;;;35.38;21.02;;;;;;;15.93;88.26;101070.84;6177039;23;20029;-75
2022/11/02 11:16:53;;;;;;;33.90;20.35;;;;;;;15.94;88.60;101053.59;6177093;23;20078;-74
2022/11/02 11:19:23;;;;;;;37.75;22.27;;;;;;;16.00;88.06;101054.00;6175576;23;20013;-74
2022/11/02 11:21:49;;;;;;;34.00;20.88;;;;;;;16.04;87.90;101052.69;6175560;23;20070;-74
2022/11/02 11:24:24;;;;;;;30.42;20.38;;;;;;;15.96;87.26;101033.66;6177488;23;20070;-74
2022/11/02 11:27:11;;;;;;;30.05;19.73;;;;;;;16.09;87.96;101047.69;6177475;23;20088;-75